sensor_id;sensor_type;location;lat;lon;timestamp;temperature;humidity
39969;DHT22;25648;47.808;19.004;2022-08-19T00:00:38;32.90;51.90
39969;DHT22;25648;47.808;19.004;2022-08-19T00:03:05;33.00;51.80
39969;DHT22;25648;47.808;19.004;2022-08-19T00:05:32;33.00;51.70
39969;DHT22;25648;47.808;19.004;2022-08-19T00:07:58;33.10;51.80
39969;DHT22;25648;47.808;19.004;2022-08-19T00:10:23;33.10;51.70
39969;DHT22;25648;47.808;19.004;2022-08-19T00:12:50;33.10;51.80
39969;DHT22;25648;47.808;19.004;2022-08-19T00:15:18;33.10;51.60
39969;DHT22;25648;47.808;19.004;2022-08-19T00:17:44;33.00;52.10
39969;DHT22;25648;47.808;19.004;2022-08-19T00:20:12;33.00;51.70
39969;DHT22;25648;47.808;19.004;2022-08-19T00:22:39;33.00;51.70
39969;DHT22;25648;47.808;19.004;2022-08-19T00:25:07;33.00;51.80
39969;DHT22;25648;47.808;19.004;2022-08-19T00:27:33;32.90;51.90
39969;DHT22;25648;47.808;19.004;2022-08-19T00:29:59;32.90;52.00
39969;DHT22;25648;47.808;19.004;2022-08-19T00:32:27;32.90;51.90
39969;DHT22;25648;47.808;19.004;2022-08-19T00:34:53;32.90;51.90
39969;DHT22;25648;47.808;19.004;2022-08-19T00:37:20;32.90;52.10
39969;DHT22;25648;47.808;19.004;2022-08-19T00:39:49;32.90;52.00
39969;DHT22;25648;47.808;19.004;2022-08-19T00:42:16;32.90;52.00
39969;DHT22;25648;47.808;19.004;2022-08-19T00:44:42;32.80;51.80
39969;DHT22;25648;47.808;19.004;2022-08-19T00:47:08;32.70;52.40
39969;DHT22;25648;47.808;19.004;2022-08-19T00:49:41;32.60;52.10
39969;DHT22;25648;47.808;19.004;2022-08-19T00:52:15;32.60;52.20
39969;DHT22;25648;47.808;19.004;2022-08-19T00:54:42;32.50;52.20
39969;DHT22;25648;47.808;19.004;2022-08-19T00:57:11;32.30;52.50
39969;DHT22;25648;47.808;19.004;2022-08-19T00:59:40;32.30;52.60
39969;DHT22;25648;47.808;19.004;2022-08-19T01:02:07;32.10;52.70
39969;DHT22;25648;47.808;19.004;2022-08-19T01:04:33;32.10;52.70
39969;DHT22;25648;47.808;19.004;2022-08-19T01:06:59;32.00;52.70
39969;DHT22;25648;47.808;19.004;2022-08-19T01:09:26;31.70;53.20
39969;DHT22;25648;47.808;19.004;2022-08-19T01:11:52;31.50;53.40
39969;DHT22;25648;47.808;19.004;2022-08-19T01:14:18;31.70;53.40
39969;DHT22;25648;47.808;19.004;2022-08-19T01:16:45;31.80;53.40
39969;DHT22;25648;47.808;19.004;2022-08-19T01:19:30;32.00;53.20
39969;DHT22;25648;47.808;19.004;2022-08-19T01:24:57;32.00;53.10
39969;DHT22;25648;47.808;19.004;2022-08-19T01:27:23;31.90;53.20
39969;DHT22;25648;47.808;19.004;2022-08-19T01:29:48;31.90;53.30
39969;DHT22;25648;47.808;19.004;2022-08-19T01:32:16;31.90;53.20
39969;DHT22;25648;47.808;19.004;2022-08-19T01:34:42;31.70;53.30
39969;DHT22;25648;47.808;19.004;2022-08-19T01:37:10;31.60;53.70
39969;DHT22;25648;47.808;19.004;2022-08-19T01:39:40;31.60;53.60
39969;DHT22;25648;47.808;19.004;2022-08-19T01:42:07;31.60;53.50
39969;DHT22;25648;47.808;19.004;2022-08-19T01:44:34;31.70;53.60
39969;DHT22;25648;47.808;19.004;2022-08-19T01:47:01;31.70;53.50
39969;DHT22;25648;47.808;19.004;2022-08-19T01:49:27;31.60;53.60
39969;DHT22;25648;47.808;19.004;2022-08-19T01:51:54;31.60;53.60
39969;DHT22;25648;47.808;19.004;2022-08-19T01:54:21;31.50;53.80
39969;DHT22;25648;47.808;19.004;2022-08-19T01:56:47;31.50;53.90
39969;DHT22;25648;47.808;19.004;2022-08-19T01:59:19;31.50;53.90
39969;DHT22;25648;47.808;19.004;2022-08-19T02:01:46;31.50;53.90
39969;DHT22;25648;47.808;19.004;2022-08-19T02:04:11;31.40;54.00
39969;DHT22;25648;47.808;19.004;2022-08-19T02:06:38;31.30;54.00
39969;DHT22;25648;47.808;19.004;2022-08-19T02:09:06;31.30;54.00
39969;DHT22;25648;47.808;19.004;2022-08-19T02:11:33;31.30;54.10
39969;DHT22;25648;47.808;19.004;2022-08-19T02:14:02;31.30;54.10
39969;DHT22;25648;47.808;19.004;2022-08-19T02:16:28;31.30;54.00
39969;DHT22;25648;47.808;19.004;2022-08-19T02:18:54;31.40;54.10
39969;DHT22;25648;47.808;19.004;2022-08-19T02:21:22;31.20;53.90
39969;DHT22;25648;47.808;19.004;2022-08-19T02:23:49;31.20;53.90
39969;DHT22;25648;47.808;19.004;2022-08-19T02:26:15;31.20;54.00
39969;DHT22;25648;47.808;19.004;2022-08-19T02:28:42;31.20;54.10
39969;DHT22;25648;47.808;19.004;2022-08-19T02:31:17;31.10;54.10
39969;DHT22;25648;47.808;19.004;2022-08-19T02:33:43;31.00;54.30
39969;DHT22;25648;47.808;19.004;2022-08-19T02:36:12;30.90;54.50
39969;DHT22;25648;47.808;19.004;2022-08-19T02:38:39;30.90;54.70
39969;DHT22;25648;47.808;19.004;2022-08-19T02:41:13;30.80;54.80
39969;DHT22;25648;47.808;19.004;2022-08-19T02:43:39;30.80;54.80
39969;DHT22;25648;47.808;19.004;2022-08-19T02:46:24;30.80;55.00
39969;DHT22;25648;47.808;19.004;2022-08-19T02:48:55;30.90;54.90
39969;DHT22;25648;47.808;19.004;2022-08-19T02:51:26;30.90;54.70
39969;DHT22;25648;47.808;19.004;2022-08-19T02:53:53;30.80;54.70
39969;DHT22;25648;47.808;19.004;2022-08-19T02:56:19;30.80;54.80
39969;DHT22;25648;47.808;19.004;2022-08-19T02:58:46;30.80;54.80
39969;DHT22;25648;47.808;19.004;2022-08-19T03:03:48;30.70;55.00
39969;DHT22;25648;47.808;19.004;2022-08-19T03:06:15;30.60;55.00
39969;DHT22;25648;47.808;19.004;2022-08-19T03:08:42;30.60;55.00
39969;DHT22;25648;47.808;19.004;2022-08-19T03:11:27;30.60;55.10
39969;DHT22;25648;47.808;19.004;2022-08-19T03:13:53;30.60;55.10
39969;DHT22;25648;47.808;19.004;2022-08-19T03:16:21;30.40;55.20
39969;DHT22;25648;47.808;19.004;2022-08-19T03:18:47;30.40;55.40
39969;DHT22;25648;47.808;19.004;2022-08-19T03:21:22;30.40;55.50
39969;DHT22;25648;47.808;19.004;2022-08-19T03:23:49;30.30;55.40
39969;DHT22;25648;47.808;19.004;2022-08-19T03:26:16;30.30;55.70
39969;DHT22;25648;47.808;19.004;2022-08-19T03:28:45;30.20;55.70
39969;DHT22;25648;47.808;19.004;2022-08-19T03:31:17;30.20;55.60
39969;DHT22;25648;47.808;19.004;2022-08-19T03:33:43;30.20;55.60
39969;DHT22;25648;47.808;19.004;2022-08-19T03:36:15;30.20;55.70
39969;DHT22;25648;47.808;19.004;2022-08-19T03:38:47;30.20;55.60
39969;DHT22;25648;47.808;19.004;2022-08-19T03:41:29;30.20;55.80
39969;DHT22;25648;47.808;19.004;2022-08-19T03:43:56;30.20;55.80
39969;DHT22;25648;47.808;19.004;2022-08-19T03:46:26;30.20;55.80
39969;DHT22;25648;47.808;19.004;2022-08-19T03:48:53;30.20;55.80
39969;DHT22;25648;47.808;19.004;2022-08-19T03:51:24;30.10;56.00
39969;DHT22;25648;47.808;19.004;2022-08-19T03:53:52;30.10;56.10
39969;DHT22;25648;47.808;19.004;2022-08-19T03:56:17;30.10;56.10
39969;DHT22;25648;47.808;19.004;2022-08-19T03:58:43;30.10;56.40
39969;DHT22;25648;47.808;19.004;2022-08-19T04:01:12;30.00;56.30
39969;DHT22;25648;47.808;19.004;2022-08-19T04:03:39;30.10;56.30
39969;DHT22;25648;47.808;19.004;2022-08-19T04:06:23;30.10;56.30
39969;DHT22;25648;47.808;19.004;2022-08-19T04:08:51;30.20;56.30
39969;DHT22;25648;47.808;19.004;2022-08-19T04:11:21;30.20;56.20
39969;DHT22;25648;47.808;19.004;2022-08-19T04:13:48;30.30;56.00
39969;DHT22;25648;47.808;19.004;2022-08-19T04:16:14;30.30;56.20
39969;DHT22;25648;47.808;19.004;2022-08-19T04:18:40;30.30;56.00
39969;DHT22;25648;47.808;19.004;2022-08-19T04:21:07;30.30;56.10
39969;DHT22;25648;47.808;19.004;2022-08-19T04:23:34;30.20;56.10
39969;DHT22;25648;47.808;19.004;2022-08-19T04:26:02;30.40;56.10
39969;DHT22;25648;47.808;19.004;2022-08-19T04:28:28;30.50;56.00
39969;DHT22;25648;47.808;19.004;2022-08-19T04:30:55;30.60;55.80
39969;DHT22;25648;47.808;19.004;2022-08-19T04:33:23;30.70;55.60
39969;DHT22;25648;47.808;19.004;2022-08-19T04:35:51;30.80;55.50
39969;DHT22;25648;47.808;19.004;2022-08-19T04:38:19;30.80;55.40
39969;DHT22;25648;47.808;19.004;2022-08-19T04:40:50;30.90;55.50
39969;DHT22;25648;47.808;19.004;2022-08-19T04:43:36;31.00;55.40
39969;DHT22;25648;47.808;19.004;2022-08-19T04:46:08;30.90;55.80
39969;DHT22;25648;47.808;19.004;2022-08-19T04:48:34;30.90;55.90
39969;DHT22;25648;47.808;19.004;2022-08-19T04:51:00;30.80;55.60
39969;DHT22;25648;47.808;19.004;2022-08-19T04:53:31;30.70;56.20
39969;DHT22;25648;47.808;19.004;2022-08-19T04:55:58;30.80;56.40
39969;DHT22;25648;47.808;19.004;2022-08-19T04:58:26;31.10;56.20
39969;DHT22;25648;47.808;19.004;2022-08-19T05:00:53;31.30;56.40
39969;DHT22;25648;47.808;19.004;2022-08-19T05:03:19;31.50;55.70
39969;DHT22;25648;47.808;19.004;2022-08-19T05:05:47;31.60;55.50
39969;DHT22;25648;47.808;19.004;2022-08-19T05:08:18;31.70;55.40
39969;DHT22;25648;47.808;19.004;2022-08-19T05:10:50;31.80;55.20
39969;DHT22;25648;47.808;19.004;2022-08-19T05:13:17;31.80;55.00
39969;DHT22;25648;47.808;19.004;2022-08-19T05:15:55;31.90;55.00
39969;DHT22;25648;47.808;19.004;2022-08-19T05:18:21;32.00;54.90
39969;DHT22;25648;47.808;19.004;2022-08-19T05:21:10;32.10;54.90
39969;DHT22;25648;47.808;19.004;2022-08-19T05:23:55;31.80;54.80
39969;DHT22;25648;47.808;19.004;2022-08-19T05:26:20;31.70;54.50
39969;DHT22;25648;47.808;19.004;2022-08-19T05:28:46;31.60;55.40
39969;DHT22;25648;47.808;19.004;2022-08-19T05:31:12;31.70;55.70
39969;DHT22;25648;47.808;19.004;2022-08-19T05:33:38;31.90;55.40
39969;DHT22;25648;47.808;19.004;2022-08-19T05:36:05;32.10;55.30
39969;DHT22;25648;47.808;19.004;2022-08-19T05:38:33;32.30;54.80
39969;DHT22;25648;47.808;19.004;2022-08-19T05:40:59;32.50;54.80
39969;DHT22;25648;47.808;19.004;2022-08-19T05:43:25;32.60;54.50
39969;DHT22;25648;47.808;19.004;2022-08-19T05:45:51;32.70;54.30
39969;DHT22;25648;47.808;19.004;2022-08-19T05:48:16;32.80;54.20
39969;DHT22;25648;47.808;19.004;2022-08-19T05:50:46;32.80;54.10
39969;DHT22;25648;47.808;19.004;2022-08-19T05:53:12;32.80;54.30
39969;DHT22;25648;47.808;19.004;2022-08-19T05:55:41;32.90;53.30
39969;DHT22;25648;47.808;19.004;2022-08-19T05:58:07;32.90;53.50
39969;DHT22;25648;47.808;19.004;2022-08-19T06:00:35;32.80;53.70
39969;DHT22;25648;47.808;19.004;2022-08-19T06:03:01;32.90;53.90
39969;DHT22;25648;47.808;19.004;2022-08-19T06:05:29;33.20;53.50
39969;DHT22;25648;47.808;19.004;2022-08-19T06:07:56;33.30;53.40
39969;DHT22;25648;47.808;19.004;2022-08-19T06:10:22;33.40;53.10
39969;DHT22;25648;47.808;19.004;2022-08-19T06:12:48;33.40;52.50
39969;DHT22;25648;47.808;19.004;2022-08-19T06:15:14;33.50;52.40
39969;DHT22;25648;47.808;19.004;2022-08-19T06:17:41;33.70;52.10
39969;DHT22;25648;47.808;19.004;2022-08-19T06:20:09;33.70;51.90
39969;DHT22;25648;47.808;19.004;2022-08-19T06:22:44;33.70;51.90
39969;DHT22;25648;47.808;19.004;2022-08-19T06:25:12;33.80;51.70
39969;DHT22;25648;47.808;19.004;2022-08-19T06:27:39;33.90;51.10
39969;DHT22;25648;47.808;19.004;2022-08-19T06:30:05;33.60;51.50
39969;DHT22;25648;47.808;19.004;2022-08-19T06:32:31;33.00;51.40
39969;DHT22;25648;47.808;19.004;2022-08-19T06:34:57;32.20;52.70
39969;DHT22;25648;47.808;19.004;2022-08-19T06:37:23;32.20;53.10
39969;DHT22;25648;47.808;19.004;2022-08-19T06:39:50;32.80;52.80
39969;DHT22;25648;47.808;19.004;2022-08-19T06:42:15;33.50;51.80
39969;DHT22;25648;47.808;19.004;2022-08-19T06:44:46;33.90;51.20
39969;DHT22;25648;47.808;19.004;2022-08-19T06:47:19;34.20;51.40
39969;DHT22;25648;47.808;19.004;2022-08-19T06:49:45;34.50;50.90
39969;DHT22;25648;47.808;19.004;2022-08-19T06:52:11;34.60;50.10
39969;DHT22;25648;47.808;19.004;2022-08-19T06:54:38;34.40;49.40
39969;DHT22;25648;47.808;19.004;2022-08-19T06:57:05;34.30;50.10
39969;DHT22;25648;47.808;19.004;2022-08-19T06:59:32;34.10;49.60
39969;DHT22;25648;47.808;19.004;2022-08-19T07:02:00;33.80;49.90
39969;DHT22;25648;47.808;19.004;2022-08-19T07:04:29;33.40;50.40
39969;DHT22;25648;47.808;19.004;2022-08-19T07:06:59;33.20;51.10
39969;DHT22;25648;47.808;19.004;2022-08-19T07:09:26;33.10;50.80
39969;DHT22;25648;47.808;19.004;2022-08-19T07:11:53;33.20;51.50
39969;DHT22;25648;47.808;19.004;2022-08-19T07:14:23;33.30;51.00
39969;DHT22;25648;47.808;19.004;2022-08-19T07:16:54;33.30;51.10
39969;DHT22;25648;47.808;19.004;2022-08-19T07:19:22;33.30;51.00
39969;DHT22;25648;47.808;19.004;2022-08-19T07:21:50;33.50;50.80
39969;DHT22;25648;47.808;19.004;2022-08-19T07:24:22;34.00;50.70
39969;DHT22;25648;47.808;19.004;2022-08-19T07:26:54;34.20;49.80
39969;DHT22;25648;47.808;19.004;2022-08-19T07:29:21;34.50;49.60
39969;DHT22;25648;47.808;19.004;2022-08-19T07:31:50;34.60;49.30
39969;DHT22;25648;47.808;19.004;2022-08-19T07:34:16;34.60;50.10
39969;DHT22;25648;47.808;19.004;2022-08-19T07:36:43;34.60;49.70
39969;DHT22;25648;47.808;19.004;2022-08-19T07:39:18;34.70;49.60
39969;DHT22;25648;47.808;19.004;2022-08-19T07:41:45;35.00;49.30
39969;DHT22;25648;47.808;19.004;2022-08-19T07:44:11;35.30;49.10
39969;DHT22;25648;47.808;19.004;2022-08-19T07:46:42;35.20;49.30
39969;DHT22;25648;47.808;19.004;2022-08-19T07:49:09;35.50;48.90
39969;DHT22;25648;47.808;19.004;2022-08-19T07:51:39;35.60;48.50
39969;DHT22;25648;47.808;19.004;2022-08-19T07:54:05;35.50;48.30
39969;DHT22;25648;47.808;19.004;2022-08-19T07:56:31;35.40;49.20
39969;DHT22;25648;47.808;19.004;2022-08-19T07:58:57;35.50;49.00
39969;DHT22;25648;47.808;19.004;2022-08-19T08:01:25;35.70;48.40
39969;DHT22;25648;47.808;19.004;2022-08-19T08:03:53;35.50;48.30
39969;DHT22;25648;47.808;19.004;2022-08-19T08:06:38;35.50;49.00
39969;DHT22;25648;47.808;19.004;2022-08-19T08:09:30;35.40;48.40
39969;DHT22;25648;47.808;19.004;2022-08-19T08:12:00;35.70;49.10
39969;DHT22;25648;47.808;19.004;2022-08-19T08:14:36;35.90;48.10
39969;DHT22;25648;47.808;19.004;2022-08-19T08:17:03;35.90;47.90
39969;DHT22;25648;47.808;19.004;2022-08-19T08:19:29;35.70;48.90
39969;DHT22;25648;47.808;19.004;2022-08-19T08:21:58;35.80;48.90
39969;DHT22;25648;47.808;19.004;2022-08-19T08:24:28;36.10;47.90
39969;DHT22;25648;47.808;19.004;2022-08-19T08:26:54;36.10;48.30
39969;DHT22;25648;47.808;19.004;2022-08-19T08:29:20;36.30;48.40
39969;DHT22;25648;47.808;19.004;2022-08-19T08:31:46;36.70;48.10
39969;DHT22;25648;47.808;19.004;2022-08-19T08:34:13;37.10;47.60
39969;DHT22;25648;47.808;19.004;2022-08-19T08:36:42;37.30;47.30
39969;DHT22;25648;47.808;19.004;2022-08-19T08:39:12;37.00;46.50
39969;DHT22;25648;47.808;19.004;2022-08-19T08:44:39;37.00;46.80
39969;DHT22;25648;47.808;19.004;2022-08-19T08:47:15;37.30;46.80
39969;DHT22;25648;47.808;19.004;2022-08-19T08:49:53;37.30;46.90
39969;DHT22;25648;47.808;19.004;2022-08-19T08:54:51;38.00;45.10
39969;DHT22;25648;47.808;19.004;2022-08-19T08:57:49;37.70;45.60
39969;DHT22;25648;47.808;19.004;2022-08-19T09:00:36;37.30;45.60
39969;DHT22;25648;47.808;19.004;2022-08-19T09:03:03;36.90;45.80
39969;DHT22;25648;47.808;19.004;2022-08-19T09:05:42;37.20;46.00
39969;DHT22;25648;47.808;19.004;2022-08-19T09:08:13;36.90;45.70
39969;DHT22;25648;47.808;19.004;2022-08-19T09:10:49;37.30;45.60
39969;DHT22;25648;47.808;19.004;2022-08-19T09:15:48;37.50;45.50
39969;DHT22;25648;47.808;19.004;2022-08-19T09:18:15;37.80;44.60
39969;DHT22;25648;47.808;19.004;2022-08-19T09:20:42;37.80;45.00
39969;DHT22;25648;47.808;19.004;2022-08-19T09:23:08;37.40;44.20
39969;DHT22;25648;47.808;19.004;2022-08-19T09:25:36;37.50;44.30
39969;DHT22;25648;47.808;19.004;2022-08-19T09:28:03;37.60;44.70
39969;DHT22;25648;47.808;19.004;2022-08-19T09:30:32;37.60;44.80
39969;DHT22;25648;47.808;19.004;2022-08-19T09:33:00;37.80;44.70
39969;DHT22;25648;47.808;19.004;2022-08-19T09:35:28;38.20;44.40
39969;DHT22;25648;47.808;19.004;2022-08-19T09:37:55;38.40;44.50
39969;DHT22;25648;47.808;19.004;2022-08-19T09:40:22;38.10;44.30
39969;DHT22;25648;47.808;19.004;2022-08-19T09:42:48;37.90;44.00
39969;DHT22;25648;47.808;19.004;2022-08-19T09:45:19;37.60;44.40
39969;DHT22;25648;47.808;19.004;2022-08-19T09:47:47;37.80;44.10
39969;DHT22;25648;47.808;19.004;2022-08-19T09:50:13;38.10;43.90
39969;DHT22;25648;47.808;19.004;2022-08-19T09:52:39;38.00;44.10
39969;DHT22;25648;47.808;19.004;2022-08-19T09:55:07;37.90;44.30
39969;DHT22;25648;47.808;19.004;2022-08-19T09:57:33;38.20;43.90
39969;DHT22;25648;47.808;19.004;2022-08-19T09:59:59;38.10;43.80
39969;DHT22;25648;47.808;19.004;2022-08-19T10:02:25;37.50;43.90
39969;DHT22;25648;47.808;19.004;2022-08-19T10:04:51;37.70;44.30
39969;DHT22;25648;47.808;19.004;2022-08-19T10:07:36;38.10;44.30
39969;DHT22;25648;47.808;19.004;2022-08-19T10:10:04;39.00;44.00
39969;DHT22;25648;47.808;19.004;2022-08-19T10:12:31;39.20;43.60
39969;DHT22;25648;47.808;19.004;2022-08-19T10:14:58;39.00;43.10
39969;DHT22;25648;47.808;19.004;2022-08-19T10:17:24;38.70;43.50
39969;DHT22;25648;47.808;19.004;2022-08-19T10:19:51;38.50;43.70
39969;DHT22;25648;47.808;19.004;2022-08-19T10:22:17;38.20;44.00
39969;DHT22;25648;47.808;19.004;2022-08-19T10:24:43;38.30;43.70
39969;DHT22;25648;47.808;19.004;2022-08-19T10:27:09;38.40;44.20
39969;DHT22;25648;47.808;19.004;2022-08-19T10:29:35;38.60;44.10
39969;DHT22;25648;47.808;19.004;2022-08-19T10:32:04;38.60;43.80
39969;DHT22;25648;47.808;19.004;2022-08-19T10:34:31;38.70;43.90
39969;DHT22;25648;47.808;19.004;2022-08-19T10:36:58;38.70;43.50
39969;DHT22;25648;47.808;19.004;2022-08-19T10:39:24;38.90;43.50
39969;DHT22;25648;47.808;19.004;2022-08-19T10:41:50;39.10;43.20
39969;DHT22;25648;47.808;19.004;2022-08-19T10:44:16;39.10;43.20
39969;DHT22;25648;47.808;19.004;2022-08-19T10:46:44;39.00;43.60
39969;DHT22;25648;47.808;19.004;2022-08-19T10:49:13;38.90;43.80
39969;DHT22;25648;47.808;19.004;2022-08-19T10:51:39;39.70;43.70
39969;DHT22;25648;47.808;19.004;2022-08-19T10:54:24;40.10;43.30
39969;DHT22;25648;47.808;19.004;2022-08-19T10:57:09;40.40;42.90
39969;DHT22;25648;47.808;19.004;2022-08-19T10:59:35;40.80;42.40
39969;DHT22;25648;47.808;19.004;2022-08-19T11:02:03;41.00;42.60
39969;DHT22;25648;47.808;19.004;2022-08-19T11:04:30;41.10;43.40
39969;DHT22;25648;47.808;19.004;2022-08-19T11:06:57;41.00;42.30
39969;DHT22;25648;47.808;19.004;2022-08-19T11:09:24;40.40;42.70
39969;DHT22;25648;47.808;19.004;2022-08-19T11:11:51;40.40;42.60
39969;DHT22;25648;47.808;19.004;2022-08-19T11:14:18;40.10;42.70
39969;DHT22;25648;47.808;19.004;2022-08-19T11:16:49;39.70;42.60
39969;DHT22;25648;47.808;19.004;2022-08-19T11:19:16;39.40;42.80
39969;DHT22;25648;47.808;19.004;2022-08-19T11:21:45;38.90;43.20
39969;DHT22;25648;47.808;19.004;2022-08-19T11:24:24;39.20;43.70
39969;DHT22;25648;47.808;19.004;2022-08-19T11:26:52;39.70;43.20
39969;DHT22;25648;47.808;19.004;2022-08-19T11:29:20;39.60;43.80
39969;DHT22;25648;47.808;19.004;2022-08-19T11:31:48;40.00;43.40
39969;DHT22;25648;47.808;19.004;2022-08-19T11:34:17;40.20;43.10
39969;DHT22;25648;47.808;19.004;2022-08-19T11:36:45;40.20;42.60
39969;DHT22;25648;47.808;19.004;2022-08-19T11:39:14;40.30;43.00
39969;DHT22;25648;47.808;19.004;2022-08-19T11:41:41;40.40;43.20
39969;DHT22;25648;47.808;19.004;2022-08-19T11:44:07;40.30;42.50
39969;DHT22;25648;47.808;19.004;2022-08-19T11:46:34;40.60;42.50
39969;DHT22;25648;47.808;19.004;2022-08-19T11:49:00;40.50;42.20
39969;DHT22;25648;47.808;19.004;2022-08-19T11:51:27;40.70;42.70
39969;DHT22;25648;47.808;19.004;2022-08-19T11:53:54;40.80;42.30
39969;DHT22;25648;47.808;19.004;2022-08-19T11:56:21;41.00;42.80
39969;DHT22;25648;47.808;19.004;2022-08-19T11:58:47;41.10;42.80
39969;DHT22;25648;47.808;19.004;2022-08-19T12:01:16;41.30;42.10
39969;DHT22;25648;47.808;19.004;2022-08-19T12:03:43;41.10;42.50
39969;DHT22;25648;47.808;19.004;2022-08-19T12:06:12;41.20;42.40
39969;DHT22;25648;47.808;19.004;2022-08-19T12:08:41;41.20;42.40
39969;DHT22;25648;47.808;19.004;2022-08-19T12:11:08;41.00;42.00
39969;DHT22;25648;47.808;19.004;2022-08-19T12:13:35;40.90;42.70
39969;DHT22;25648;47.808;19.004;2022-08-19T12:16:11;40.80;43.00
39969;DHT22;25648;47.808;19.004;2022-08-19T12:18:38;40.50;42.50
39969;DHT22;25648;47.808;19.004;2022-08-19T12:21:06;40.20;42.70
39969;DHT22;25648;47.808;19.004;2022-08-19T12:23:32;40.40;43.40
39969;DHT22;25648;47.808;19.004;2022-08-19T12:25:58;40.10;42.60
39969;DHT22;25648;47.808;19.004;2022-08-19T12:28:25;40.00;42.40
39969;DHT22;25648;47.808;19.004;2022-08-19T12:30:51;40.50;42.60
39969;DHT22;25648;47.808;19.004;2022-08-19T12:33:17;40.80;42.20
39969;DHT22;25648;47.808;19.004;2022-08-19T12:35:45;40.80;42.10
39969;DHT22;25648;47.808;19.004;2022-08-19T12:38:12;40.60;42.20
39969;DHT22;25648;47.808;19.004;2022-08-19T12:40:39;40.40;42.60
39969;DHT22;25648;47.808;19.004;2022-08-19T12:43:08;40.50;43.00
39969;DHT22;25648;47.808;19.004;2022-08-19T12:45:34;40.60;42.30
39969;DHT22;25648;47.808;19.004;2022-08-19T12:48:00;40.40;42.30
39969;DHT22;25648;47.808;19.004;2022-08-19T12:50:26;40.60;42.10
39969;DHT22;25648;47.808;19.004;2022-08-19T12:52:52;40.70;41.90
39969;DHT22;25648;47.808;19.004;2022-08-19T12:55:17;40.20;42.10
39969;DHT22;25648;47.808;19.004;2022-08-19T12:57:44;39.90;42.30
39969;DHT22;25648;47.808;19.004;2022-08-19T13:00:13;39.90;42.30
39969;DHT22;25648;47.808;19.004;2022-08-19T13:02:42;40.00;42.40
39969;DHT22;25648;47.808;19.004;2022-08-19T13:05:11;39.90;41.80
39969;DHT22;25648;47.808;19.004;2022-08-19T13:07:39;39.90;42.00
39969;DHT22;25648;47.808;19.004;2022-08-19T13:10:07;40.00;42.00
39969;DHT22;25648;47.808;19.004;2022-08-19T13:12:33;39.90;41.70
39969;DHT22;25648;47.808;19.004;2022-08-19T13:14:59;40.00;41.60
39969;DHT22;25648;47.808;19.004;2022-08-19T13:17:25;40.50;41.90
39969;DHT22;25648;47.808;19.004;2022-08-19T13:19:50;41.20;42.30
39969;DHT22;25648;47.808;19.004;2022-08-19T13:22:16;41.20;40.50
39969;DHT22;25648;47.808;19.004;2022-08-19T13:24:42;41.10;42.00
39969;DHT22;25648;47.808;19.004;2022-08-19T13:27:08;41.30;41.80
39969;DHT22;25648;47.808;19.004;2022-08-19T13:29:34;41.00;41.00
39969;DHT22;25648;47.808;19.004;2022-08-19T13:32:18;40.80;41.60
39969;DHT22;25648;47.808;19.004;2022-08-19T13:35:04;40.40;41.00
39969;DHT22;25648;47.808;19.004;2022-08-19T13:37:29;40.30;41.60
39969;DHT22;25648;47.808;19.004;2022-08-19T13:40:15;40.10;41.50
39969;DHT22;25648;47.808;19.004;2022-08-19T13:42:45;40.00;41.70
39969;DHT22;25648;47.808;19.004;2022-08-19T13:45:12;40.00;41.50
39969;DHT22;25648;47.808;19.004;2022-08-19T13:47:39;40.40;41.90
39969;DHT22;25648;47.808;19.004;2022-08-19T13:50:15;40.60;41.40
39969;DHT22;25648;47.808;19.004;2022-08-19T13:52:42;40.80;41.70
39969;DHT22;25648;47.808;19.004;2022-08-19T13:55:10;41.10;42.10
39969;DHT22;25648;47.808;19.004;2022-08-19T13:57:36;41.30;41.70
39969;DHT22;25648;47.808;19.004;2022-08-19T14:00:08;41.40;41.90
39969;DHT22;25648;47.808;19.004;2022-08-19T14:02:42;40.80;43.20
39969;DHT22;25648;47.808;19.004;2022-08-19T14:05:10;39.40;44.50
39969;DHT22;25648;47.808;19.004;2022-08-19T14:07:37;38.70;45.20
39969;DHT22;25648;47.808;19.004;2022-08-19T14:10:09;38.10;45.80
39969;DHT22;25648;47.808;19.004;2022-08-19T14:12:35;37.50;46.60
39969;DHT22;25648;47.808;19.004;2022-08-19T14:15:02;37.10;46.50
39969;DHT22;25648;47.808;19.004;2022-08-19T14:17:29;36.70;47.50
39969;DHT22;25648;47.808;19.004;2022-08-19T14:20:03;36.50;47.70
39969;DHT22;25648;47.808;19.004;2022-08-19T14:22:34;36.50;47.60
39969;DHT22;25648;47.808;19.004;2022-08-19T14:24:59;36.30;47.50
39969;DHT22;25648;47.808;19.004;2022-08-19T14:27:25;36.10;47.90
39969;DHT22;25648;47.808;19.004;2022-08-19T14:29:54;35.80;47.80
39969;DHT22;25648;47.808;19.004;2022-08-19T14:32:20;35.60;48.30
39969;DHT22;25648;47.808;19.004;2022-08-19T14:34:46;35.80;48.50
39969;DHT22;25648;47.808;19.004;2022-08-19T14:37:13;36.00;48.30
39969;DHT22;25648;47.808;19.004;2022-08-19T14:39:40;36.30;47.90
39969;DHT22;25648;47.808;19.004;2022-08-19T14:42:08;36.30;47.30
39969;DHT22;25648;47.808;19.004;2022-08-19T14:44:34;36.50;47.10
39969;DHT22;25648;47.808;19.004;2022-08-19T14:47:00;36.50;47.50
39969;DHT22;25648;47.808;19.004;2022-08-19T14:49:26;36.60;47.10
39969;DHT22;25648;47.808;19.004;2022-08-19T14:51:51;36.70;46.30
39969;DHT22;25648;47.808;19.004;2022-08-19T14:54:17;36.60;46.80
39969;DHT22;25648;47.808;19.004;2022-08-19T14:56:43;36.60;46.90
39969;DHT22;25648;47.808;19.004;2022-08-19T14:59:09;36.40;46.30
39969;DHT22;25648;47.808;19.004;2022-08-19T15:01:35;36.30;46.30
39969;DHT22;25648;47.808;19.004;2022-08-19T15:04:06;36.50;46.10
39969;DHT22;25648;47.808;19.004;2022-08-19T15:06:44;36.50;45.80
39969;DHT22;25648;47.808;19.004;2022-08-19T15:09:19;36.10;45.80
39969;DHT22;25648;47.808;19.004;2022-08-19T15:11:51;35.90;46.50
39969;DHT22;25648;47.808;19.004;2022-08-19T15:14:16;35.80;46.00
39969;DHT22;25648;47.808;19.004;2022-08-19T15:17:02;35.70;46.20
39969;DHT22;25648;47.808;19.004;2022-08-19T15:19:56;35.60;46.20
39969;DHT22;25648;47.808;19.004;2022-08-19T15:22:25;35.80;46.10
39969;DHT22;25648;47.808;19.004;2022-08-19T15:24:50;36.20;45.90
39969;DHT22;25648;47.808;19.004;2022-08-19T15:27:16;36.20;46.00
39969;DHT22;25648;47.808;19.004;2022-08-19T15:29:45;36.40;45.50
39969;DHT22;25648;47.808;19.004;2022-08-19T15:32:11;36.40;45.50
39969;DHT22;25648;47.808;19.004;2022-08-19T15:34:36;36.50;45.50
39969;DHT22;25648;47.808;19.004;2022-08-19T15:37:02;36.40;45.30